sensor_id;sensor_type;location;lat;lon;timestamp;P1;durP1;ratioP1;P2;durP2;ratioP2
36411;SDS011;22445;52.100;5.176;2023-05-07T00:00:25;34.83;;;26.23;;
36411;SDS011;22445;52.100;5.176;2023-05-07T00:02:51;35.70;;;26.80;;
36411;SDS011;22445;52.100;5.176;2023-05-07T00:05:16;38.17;;;27.23;;
36411;SDS011;22445;52.100;5.176;2023-05-07T00:07:42;32.65;;;27.98;;
36411;SDS011;22445;52.100;5.176;2023-05-07T00:10:10;35.95;;;26.63;;
36411;SDS011;22445;52.100;5.176;2023-05-07T00:12:37;34.45;;;25.67;;
36411;SDS011;22445;52.100;5.176;2023-05-07T00:15:03;34.72;;;25.75;;
36411;SDS011;22445;52.100;5.176;2023-05-07T00:17:30;32.35;;;24.92;;
36411;SDS011;22445;52.100;5.176;2023-05-07T00:19:55;34.25;;;25.13;;
36411;SDS011;22445;52.100;5.176;2023-05-07T00:22:21;31.52;;;23.65;;
36411;SDS011;22445;52.100;5.176;2023-05-07T00:24:46;28.38;;;23.73;;
36411;SDS011;22445;52.100;5.176;2023-05-07T00:27:12;31.77;;;22.75;;
36411;SDS011;22445;52.100;5.176;2023-05-07T00:29:38;27.15;;;21.58;;
36411;SDS011;22445;52.100;5.176;2023-05-07T00:32:04;25.52;;;21.88;;
36411;SDS011;22445;52.100;5.176;2023-05-07T00:34:30;27.15;;;21.38;;
36411;SDS011;22445;52.100;5.176;2023-05-07T00:36:56;26.77;;;22.05;;
36411;SDS011;22445;52.100;5.176;2023-05-07T00:39:21;27.95;;;20.73;;
36411;SDS011;22445;52.100;5.176;2023-05-07T00:41:47;27.48;;;20.90;;
36411;SDS011;22445;52.100;5.176;2023-05-07T00:44:13;26.95;;;21.98;;
36411;SDS011;22445;52.100;5.176;2023-05-07T00:46:39;22.25;;;19.88;;
36411;SDS011;22445;52.100;5.176;2023-05-07T00:49:05;23.45;;;21.02;;
36411;SDS011;22445;52.100;5.176;2023-05-07T00:51:31;23.95;;;19.85;;
36411;SDS011;22445;52.100;5.176;2023-05-07T00:53:57;23.40;;;18.80;;
36411;SDS011;22445;52.100;5.176;2023-05-07T00:56:23;22.63;;;19.67;;
36411;SDS011;22445;52.100;5.176;2023-05-07T00:58:49;22.45;;;18.60;;
36411;SDS011;22445;52.100;5.176;2023-05-07T01:01:14;19.30;;;16.85;;
36411;SDS011;22445;52.100;5.176;2023-05-07T01:03:43;20.63;;;17.15;;
36411;SDS011;22445;52.100;5.176;2023-05-07T01:06:09;21.92;;;17.35;;
36411;SDS011;22445;52.100;5.176;2023-05-07T01:08:37;20.35;;;17.00;;
36411;SDS011;22445;52.100;5.176;2023-05-07T01:11:04;19.23;;;16.50;;
36411;SDS011;22445;52.100;5.176;2023-05-07T01:13:31;17.45;;;15.65;;
36411;SDS011;22445;52.100;5.176;2023-05-07T01:15:57;18.33;;;16.05;;
36411;SDS011;22445;52.100;5.176;2023-05-07T01:18:22;17.77;;;14.95;;
36411;SDS011;22445;52.100;5.176;2023-05-07T01:20:48;18.20;;;14.52;;
36411;SDS011;22445;52.100;5.176;2023-05-07T01:23:14;19.45;;;15.55;;
36411;SDS011;22445;52.100;5.176;2023-05-07T01:25:40;17.60;;;14.82;;
36411;SDS011;22445;52.100;5.176;2023-05-07T01:28:06;19.38;;;15.70;;
36411;SDS011;22445;52.100;5.176;2023-05-07T01:30:31;19.25;;;15.85;;
36411;SDS011;22445;52.100;5.176;2023-05-07T01:32:59;16.52;;;14.73;;
36411;SDS011;22445;52.100;5.176;2023-05-07T01:35:30;18.55;;;16.02;;
36411;SDS011;22445;52.100;5.176;2023-05-07T01:37:59;16.42;;;14.73;;
36411;SDS011;22445;52.100;5.176;2023-05-07T01:40:25;18.60;;;15.82;;
36411;SDS011;22445;52.100;5.176;2023-05-07T01:42:51;16.33;;;14.57;;
36411;SDS011;22445;52.100;5.176;2023-05-07T01:45:17;17.65;;;15.85;;
36411;SDS011;22445;52.100;5.176;2023-05-07T01:47:43;19.33;;;16.00;;
36411;SDS011;22445;52.100;5.176;2023-05-07T01:50:09;17.35;;;15.43;;
36411;SDS011;22445;52.100;5.176;2023-05-07T01:52:36;15.95;;;14.18;;
36411;SDS011;22445;52.100;5.176;2023-05-07T01:55:03;17.48;;;14.88;;
36411;SDS011;22445;52.100;5.176;2023-05-07T01:57:29;18.10;;;16.05;;
36411;SDS011;22445;52.100;5.176;2023-05-07T01:59:54;17.48;;;14.65;;
36411;SDS011;22445;52.100;5.176;2023-05-07T02:02:20;17.90;;;14.98;;
36411;SDS011;22445;52.100;5.176;2023-05-07T02:04:45;17.33;;;14.75;;
36411;SDS011;22445;52.100;5.176;2023-05-07T02:07:11;17.50;;;14.70;;
36411;SDS011;22445;52.100;5.176;2023-05-07T02:09:36;16.80;;;14.95;;
36411;SDS011;22445;52.100;5.176;2023-05-07T02:12:02;14.98;;;13.05;;
36411;SDS011;22445;52.100;5.176;2023-05-07T02:14:28;16.05;;;14.40;;
36411;SDS011;22445;52.100;5.176;2023-05-07T02:16:53;15.45;;;13.50;;
36411;SDS011;22445;52.100;5.176;2023-05-07T02:19:19;20.73;;;15.43;;
36411;SDS011;22445;52.100;5.176;2023-05-07T02:21:46;15.27;;;13.68;;
36411;SDS011;22445;52.100;5.176;2023-05-07T02:24:12;15.43;;;13.82;;
36411;SDS011;22445;52.100;5.176;2023-05-07T02:26:39;18.73;;;14.80;;
36411;SDS011;22445;52.100;5.176;2023-05-07T02:29:05;16.02;;;14.32;;
36411;SDS011;22445;52.100;5.176;2023-05-07T02:31:31;16.92;;;14.73;;
36411;SDS011;22445;52.100;5.176;2023-05-07T02:33:56;15.68;;;14.13;;
36411;SDS011;22445;52.100;5.176;2023-05-07T02:36:21;16.13;;;14.23;;
36411;SDS011;22445;52.100;5.176;2023-05-07T02:38:47;14.57;;;13.07;;
36411;SDS011;22445;52.100;5.176;2023-05-07T02:41:13;13.82;;;12.32;;
36411;SDS011;22445;52.100;5.176;2023-05-07T02:43:38;16.95;;;14.20;;
36411;SDS011;22445;52.100;5.176;2023-05-07T02:46:06;17.13;;;13.90;;
36411;SDS011;22445;52.100;5.176;2023-05-07T02:48:33;15.38;;;13.40;;
36411;SDS011;22445;52.100;5.176;2023-05-07T02:50:59;15.68;;;13.98;;
36411;SDS011;22445;52.100;5.176;2023-05-07T02:53:25;14.55;;;13.05;;
36411;SDS011;22445;52.100;5.176;2023-05-07T02:55:52;15.02;;;12.82;;
36411;SDS011;22445;52.100;5.176;2023-05-07T02:58:18;16.23;;;13.65;;
36411;SDS011;22445;52.100;5.176;2023-05-07T03:00:44;15.15;;;13.50;;
36411;SDS011;22445;52.100;5.176;2023-05-07T03:03:10;18.10;;;13.65;;
36411;SDS011;22445;52.100;5.176;2023-05-07T03:05:36;16.25;;;13.75;;
36411;SDS011;22445;52.100;5.176;2023-05-07T03:08:01;16.27;;;13.65;;
36411;SDS011;22445;52.100;5.176;2023-05-07T03:10:27;19.83;;;15.18;;
36411;SDS011;22445;52.100;5.176;2023-05-07T03:12:53;17.30;;;15.50;;
36411;SDS011;22445;52.100;5.176;2023-05-07T03:15:18;19.52;;;14.85;;
36411;SDS011;22445;52.100;5.176;2023-05-07T03:17:44;16.73;;;14.93;;
36411;SDS011;22445;52.100;5.176;2023-05-07T03:20:10;18.60;;;15.43;;
36411;SDS011;22445;52.100;5.176;2023-05-07T03:22:35;17.45;;;13.48;;
36411;SDS011;22445;52.100;5.176;2023-05-07T03:25:01;16.38;;;14.43;;
36411;SDS011;22445;52.100;5.176;2023-05-07T03:27:27;15.57;;;13.98;;
36411;SDS011;22445;52.100;5.176;2023-05-07T03:29:52;15.07;;;13.57;;
36411;SDS011;22445;52.100;5.176;2023-05-07T03:32:18;15.73;;;13.02;;
36411;SDS011;22445;52.100;5.176;2023-05-07T03:34:43;15.02;;;13.50;;
36411;SDS011;22445;52.100;5.176;2023-05-07T03:37:09;16.60;;;14.18;;
36411;SDS011;22445;52.100;5.176;2023-05-07T03:39:35;17.85;;;15.00;;
36411;SDS011;22445;52.100;5.176;2023-05-07T03:42:00;18.73;;;15.52;;
36411;SDS011;22445;52.100;5.176;2023-05-07T03:44:26;18.17;;;16.25;;
36411;SDS011;22445;52.100;5.176;2023-05-07T03:46:51;18.05;;;15.55;;
36411;SDS011;22445;52.100;5.176;2023-05-07T03:49:17;18.35;;;15.82;;
36411;SDS011;22445;52.100;5.176;2023-05-07T03:51:42;20.55;;;16.42;;
36411;SDS011;22445;52.100;5.176;2023-05-07T03:54:08;19.02;;;16.20;;
36411;SDS011;22445;52.100;5.176;2023-05-07T03:56:33;19.88;;;16.95;;
36411;SDS011;22445;52.100;5.176;2023-05-07T03:59:00;19.48;;;16.83;;
36411;SDS011;22445;52.100;5.176;2023-05-07T04:01:26;21.08;;;16.95;;
36411;SDS011;22445;52.100;5.176;2023-05-07T04:03:52;22.10;;;17.13;;
36411;SDS011;22445;52.100;5.176;2023-05-07T04:06:17;21.10;;;17.52;;
36411;SDS011;22445;52.100;5.176;2023-05-07T04:08:43;20.60;;;17.85;;
36411;SDS011;22445;52.100;5.176;2023-05-07T04:11:09;26.60;;;22.02;;
36411;SDS011;22445;52.100;5.176;2023-05-07T04:13:34;22.70;;;20.30;;
36411;SDS011;22445;52.100;5.176;2023-05-07T04:16:00;23.48;;;20.35;;
36411;SDS011;22445;52.100;5.176;2023-05-07T04:18:27;27.75;;;22.63;;
36411;SDS011;22445;52.100;5.176;2023-05-07T04:20:53;26.17;;;19.88;;
36411;SDS011;22445;52.100;5.176;2023-05-07T04:23:19;25.95;;;21.75;;
36411;SDS011;22445;52.100;5.176;2023-05-07T04:25:44;25.80;;;21.15;;
36411;SDS011;22445;52.100;5.176;2023-05-07T04:28:10;29.50;;;22.30;;
36411;SDS011;22445;52.100;5.176;2023-05-07T04:30:36;25.25;;;22.55;;
36411;SDS011;22445;52.100;5.176;2023-05-07T04:33:02;27.42;;;22.33;;
36411;SDS011;22445;52.100;5.176;2023-05-07T04:35:27;28.45;;;24.00;;
36411;SDS011;22445;52.100;5.176;2023-05-07T04:37:53;26.42;;;22.05;;
36411;SDS011;22445;52.100;5.176;2023-05-07T04:40:19;27.35;;;22.60;;
36411;SDS011;22445;52.100;5.176;2023-05-07T04:42:45;27.48;;;24.23;;
36411;SDS011;22445;52.100;5.176;2023-05-07T04:45:10;27.67;;;23.30;;
36411;SDS011;22445;52.100;5.176;2023-05-07T04:47:38;29.38;;;25.10;;
36411;SDS011;22445;52.100;5.176;2023-05-07T04:50:04;24.77;;;22.27;;
36411;SDS011;22445;52.100;5.176;2023-05-07T04:52:30;23.67;;;21.13;;
36411;SDS011;22445;52.100;5.176;2023-05-07T04:54:58;25.38;;;22.67;;
36411;SDS011;22445;52.100;5.176;2023-05-07T04:57:24;25.65;;;22.95;;
36411;SDS011;22445;52.100;5.176;2023-05-07T04:59:50;24.92;;;22.35;;
36411;SDS011;22445;52.100;5.176;2023-05-07T05:02:16;27.55;;;23.33;;
36411;SDS011;22445;52.100;5.176;2023-05-07T05:04:41;27.13;;;22.17;;
36411;SDS011;22445;52.100;5.176;2023-05-07T05:07:07;26.30;;;23.30;;
36411;SDS011;22445;52.100;5.176;2023-05-07T05:09:32;25.42;;;22.33;;
36411;SDS011;22445;52.100;5.176;2023-05-07T05:11:58;25.08;;;22.42;;
36411;SDS011;22445;52.100;5.176;2023-05-07T05:14:24;24.83;;;22.25;;
36411;SDS011;22445;52.100;5.176;2023-05-07T05:16:50;22.30;;;20.00;;
36411;SDS011;22445;52.100;5.176;2023-05-07T05:19:15;23.42;;;21.10;;
36411;SDS011;22445;52.100;5.176;2023-05-07T05:21:41;23.85;;;21.30;;
36411;SDS011;22445;52.100;5.176;2023-05-07T05:24:06;21.20;;;18.95;;
36411;SDS011;22445;52.100;5.176;2023-05-07T05:26:32;23.45;;;20.98;;
36411;SDS011;22445;52.100;5.176;2023-05-07T05:28:58;22.88;;;20.50;;
36411;SDS011;22445;52.100;5.176;2023-05-07T05:31:23;23.92;;;21.40;;
36411;SDS011;22445;52.100;5.176;2023-05-07T05:33:49;22.45;;;20.23;;
36411;SDS011;22445;52.100;5.176;2023-05-07T05:36:14;22.17;;;19.77;;
36411;SDS011;22445;52.100;5.176;2023-05-07T05:38:40;24.15;;;21.33;;
36411;SDS011;22445;52.100;5.176;2023-05-07T05:41:06;22.90;;;20.45;;
36411;SDS011;22445;52.100;5.176;2023-05-07T05:43:31;23.58;;;20.75;;
36411;SDS011;22445;52.100;5.176;2023-05-07T05:45:57;24.70;;;21.52;;
36411;SDS011;22445;52.100;5.176;2023-05-07T05:48:22;22.83;;;20.42;;
36411;SDS011;22445;52.100;5.176;2023-05-07T05:50:48;23.00;;;19.25;;
36411;SDS011;22445;52.100;5.176;2023-05-07T05:53:17;22.33;;;19.95;;
36411;SDS011;22445;52.100;5.176;2023-05-07T05:55:42;23.73;;;20.90;;
36411;SDS011;22445;52.100;5.176;2023-05-07T05:58:11;23.08;;;20.65;;
36411;SDS011;22445;52.100;5.176;2023-05-07T06:00:36;22.20;;;19.80;;
36411;SDS011;22445;52.100;5.176;2023-05-07T06:03:02;22.80;;;19.30;;
36411;SDS011;22445;52.100;5.176;2023-05-07T06:05:28;23.73;;;20.02;;
36411;SDS011;22445;52.100;5.176;2023-05-07T06:07:54;23.83;;;19.73;;
36411;SDS011;22445;52.100;5.176;2023-05-07T06:10:19;22.48;;;20.08;;
36411;SDS011;22445;52.100;5.176;2023-05-07T06:12:45;23.95;;;20.50;;
36411;SDS011;22445;52.100;5.176;2023-05-07T06:15:11;22.10;;;19.80;;
36411;SDS011;22445;52.100;5.176;2023-05-07T06:17:36;22.40;;;18.27;;
36411;SDS011;22445;52.100;5.176;2023-05-07T06:20:02;21.50;;;19.17;;
36411;SDS011;22445;52.100;5.176;2023-05-07T06:22:28;18.25;;;16.35;;
36411;SDS011;22445;52.100;5.176;2023-05-07T06:24:54;17.98;;;16.02;;
36411;SDS011;22445;52.100;5.176;2023-05-07T06:27:19;17.25;;;15.45;;
36411;SDS011;22445;52.100;5.176;2023-05-07T06:29:45;16.30;;;14.65;;
36411;SDS011;22445;52.100;5.176;2023-05-07T06:32:11;15.45;;;13.85;;
36411;SDS011;22445;52.100;5.176;2023-05-07T06:34:38;14.95;;;12.82;;
36411;SDS011;22445;52.100;5.176;2023-05-07T06:37:04;13.38;;;12.15;;
36411;SDS011;22445;52.100;5.176;2023-05-07T06:39:30;13.32;;;11.93;;
36411;SDS011;22445;52.100;5.176;2023-05-07T06:41:56;13.52;;;12.13;;
36411;SDS011;22445;52.100;5.176;2023-05-07T06:44:22;14.80;;;13.30;;
36411;SDS011;22445;52.100;5.176;2023-05-07T06:46:48;14.10;;;12.70;;
36411;SDS011;22445;52.100;5.176;2023-05-07T06:49:14;14.57;;;13.00;;
36411;SDS011;22445;52.100;5.176;2023-05-07T06:51:39;14.27;;;12.77;;
36411;SDS011;22445;52.100;5.176;2023-05-07T06:54:05;14.13;;;12.63;;
36411;SDS011;22445;52.100;5.176;2023-05-07T06:56:31;14.40;;;13.00;;
36411;SDS011;22445;52.100;5.176;2023-05-07T06:58:57;14.43;;;12.98;;
36411;SDS011;22445;52.100;5.176;2023-05-07T07:01:23;14.73;;;13.23;;
36411;SDS011;22445;52.100;5.176;2023-05-07T07:03:49;14.32;;;12.82;;
36411;SDS011;22445;52.100;5.176;2023-05-07T07:06:14;15.30;;;11.95;;
36411;SDS011;22445;52.100;5.176;2023-05-07T07:08:40;15.00;;;12.57;;
36411;SDS011;22445;52.100;5.176;2023-05-07T07:11:05;13.77;;;11.93;;
36411;SDS011;22445;52.100;5.176;2023-05-07T07:13:31;14.63;;;11.90;;
36411;SDS011;22445;52.100;5.176;2023-05-07T07:15:57;13.45;;;12.05;;
36411;SDS011;22445;52.100;5.176;2023-05-07T07:18:22;13.35;;;11.80;;
36411;SDS011;22445;52.100;5.176;2023-05-07T07:20:50;12.52;;;11.32;;
36411;SDS011;22445;52.100;5.176;2023-05-07T07:23:16;13.20;;;11.80;;
36411;SDS011;22445;52.100;5.176;2023-05-07T07:25:42;14.60;;;13.10;;
36411;SDS011;22445;52.100;5.176;2023-05-07T07:28:07;11.95;;;10.75;;
36411;SDS011;22445;52.100;5.176;2023-05-07T07:30:37;14.02;;;12.63;;
36411;SDS011;22445;52.100;5.176;2023-05-07T07:33:03;12.68;;;11.38;;
36411;SDS011;22445;52.100;5.176;2023-05-07T07:35:30;13.13;;;11.15;;
36411;SDS011;22445;52.100;5.176;2023-05-07T07:37:58;13.80;;;11.32;;
36411;SDS011;22445;52.100;5.176;2023-05-07T07:40:24;12.30;;;11.07;;
36411;SDS011;22445;52.100;5.176;2023-05-07T07:42:52;13.52;;;11.98;;
36411;SDS011;22445;52.100;5.176;2023-05-07T07:45:19;14.05;;;12.15;;
36411;SDS011;22445;52.100;5.176;2023-05-07T07:47:45;12.18;;;10.98;;
36411;SDS011;22445;52.100;5.176;2023-05-07T07:50:10;14.00;;;12.70;;
36411;SDS011;22445;52.100;5.176;2023-05-07T07:52:36;14.05;;;11.50;;
36411;SDS011;22445;52.100;5.176;2023-05-07T07:55:02;13.88;;;11.32;;
36411;SDS011;22445;52.100;5.176;2023-05-07T07:57:28;11.77;;;10.57;;
36411;SDS011;22445;52.100;5.176;2023-05-07T07:59:54;13.88;;;12.43;;
36411;SDS011;22445;52.100;5.176;2023-05-07T08:02:19;13.27;;;11.80;;
36411;SDS011;22445;52.100;5.176;2023-05-07T08:04:45;13.70;;;11.60;;
36411;SDS011;22445;52.100;5.176;2023-05-07T08:07:11;12.75;;;11.30;;
36411;SDS011;22445;52.100;5.176;2023-05-07T08:09:37;12.23;;;11.02;;
36411;SDS011;22445;52.100;5.176;2023-05-07T08:12:04;12.77;;;11.48;;
36411;SDS011;22445;52.100;5.176;2023-05-07T08:14:30;15.27;;;12.13;;
36411;SDS011;22445;52.100;5.176;2023-05-07T08:16:56;12.02;;;10.57;;
36411;SDS011;22445;52.100;5.176;2023-05-07T08:19:21;12.18;;;10.98;;
36411;SDS011;22445;52.100;5.176;2023-05-07T08:21:47;12.68;;;11.38;;
36411;SDS011;22445;52.100;5.176;2023-05-07T08:24:16;13.18;;;11.77;;
36411;SDS011;22445;52.100;5.176;2023-05-07T08:26:41;11.98;;;10.85;;
36411;SDS011;22445;52.100;5.176;2023-05-07T08:29:08;12.02;;;10.82;;
36411;SDS011;22445;52.100;5.176;2023-05-07T08:31:33;12.05;;;10.73;;
36411;SDS011;22445;52.100;5.176;2023-05-07T08:33:59;12.32;;;11.13;;
36411;SDS011;22445;52.100;5.176;2023-05-07T08:36:25;11.77;;;10.57;;
36411;SDS011;22445;52.100;5.176;2023-05-07T08:38:51;11.95;;;10.48;;
36411;SDS011;22445;52.100;5.176;2023-05-07T08:41:17;12.23;;;9.98;;
36411;SDS011;22445;52.100;5.176;2023-05-07T08:43:44;10.02;;;9.02;;
36411;SDS011;22445;52.100;5.176;2023-05-07T08:46:13;10.90;;;9.75;;
36411;SDS011;22445;52.100;5.176;2023-05-07T08:48:44;11.32;;;9.73;;
36411;SDS011;22445;52.100;5.176;2023-05-07T08:51:16;8.88;;;7.97;;
36411;SDS011;22445;52.100;5.176;2023-05-07T08:53:46;9.25;;;8.23;;
36411;SDS011;22445;52.100;5.176;2023-05-07T08:56:16;10.57;;;8.63;;
36411;SDS011;22445;52.100;5.176;2023-05-07T08:58:45;10.50;;;9.52;;
36411;SDS011;22445;52.100;5.176;2023-05-07T09:01:16;11.55;;;9.20;;
36411;SDS011;22445;52.100;5.176;2023-05-07T09:03:45;9.48;;;8.60;;
36411;SDS011;22445;52.100;5.176;2023-05-07T09:06:12;12.13;;;8.82;;
36411;SDS011;22445;52.100;5.176;2023-05-07T09:08:39;10.90;;;8.48;;
36411;SDS011;22445;52.100;5.176;2023-05-07T09:11:05;9.07;;;8.10;;
36411;SDS011;22445;52.100;5.176;2023-05-07T09:13:30;10.20;;;8.73;;
36411;SDS011;22445;52.100;5.176;2023-05-07T09:16:06;9.25;;;8.25;;
36411;SDS011;22445;52.100;5.176;2023-05-07T09:18:36;9.30;;;7.82;;
36411;SDS011;22445;52.100;5.176;2023-05-07T09:21:09;9.30;;;8.05;;
36411;SDS011;22445;52.100;5.176;2023-05-07T09:23:35;9.73;;;8.82;;
36411;SDS011;22445;52.100;5.176;2023-05-07T09:26:01;7.55;;;6.82;;
36411;SDS011;22445;52.100;5.176;2023-05-07T09:28:27;8.57;;;7.72;;
36411;SDS011;22445;52.100;5.176;2023-05-07T09:30:52;9.10;;;8.10;;
36411;SDS011;22445;52.100;5.176;2023-05-07T09:33:18;7.68;;;6.35;;
36411;SDS011;22445;52.100;5.176;2023-05-07T09:35:44;8.10;;;7.30;;
36411;SDS011;22445;52.100;5.176;2023-05-07T09:38:10;7.97;;;7.20;;
36411;SDS011;22445;52.100;5.176;2023-05-07T09:40:35;8.52;;;7.65;;
36411;SDS011;22445;52.100;5.176;2023-05-07T09:43:10;8.23;;;7.53;;
36411;SDS011;22445;52.100;5.176;2023-05-07T09:45:36;9.63;;;7.10;;
36411;SDS011;22445;52.100;5.176;2023-05-07T09:48:04;7.55;;;6.70;;
36411;SDS011;22445;52.100;5.176;2023-05-07T09:50:35;7.85;;;6.95;;
36411;SDS011;22445;52.100;5.176;2023-05-07T09:53:03;9.45;;;5.50;;
36411;SDS011;22445;52.100;5.176;2023-05-07T09:55:30;6.03;;;5.43;;
36411;SDS011;22445;52.100;5.176;2023-05-07T09:57:59;4.80;;;4.00;;
36411;SDS011;22445;52.100;5.176;2023-05-07T10:00:25;6.03;;;4.88;;
36411;SDS011;22445;52.100;5.176;2023-05-07T10:02:52;5.38;;;4.88;;
36411;SDS011;22445;52.100;5.176;2023-05-07T10:05:18;6.20;;;4.72;;
36411;SDS011;22445;52.100;5.176;2023-05-07T10:07:45;6.63;;;4.90;;
36411;SDS011;22445;52.100;5.176;2023-05-07T10:10:11;4.93;;;4.43;;
36411;SDS011;22445;52.100;5.176;2023-05-07T10:12:37;4.72;;;3.67;;
36411;SDS011;22445;52.100;5.176;2023-05-07T10:15:08;4.97;;;3.17;;
36411;SDS011;22445;52.100;5.176;2023-05-07T10:17:38;4.15;;;3.38;;
36411;SDS011;22445;52.100;5.176;2023-05-07T10:20:04;3.85;;;3.30;;
36411;SDS011;22445;52.100;5.176;2023-05-07T10:22:50;3.63;;;3.15;;
36411;SDS011;22445;52.100;5.176;2023-05-07T10:25:25;2.75;;;2.42;;
36411;SDS011;22445;52.100;5.176;2023-05-07T10:27:53;2.35;;;2.03;;
36411;SDS011;22445;52.100;5.176;2023-05-07T10:30:33;3.92;;;2.53;;
36411;SDS011;22445;52.100;5.176;2023-05-07T10:33:28;2.33;;;2.10;;
36411;SDS011;22445;52.100;5.176;2023-05-07T10:35:58;3.38;;;1.80;;
36411;SDS011;22445;52.100;5.176;2023-05-07T10:38:26;2.47;;;1.90;;
36411;SDS011;22445;52.100;5.176;2023-05-07T10:40:52;3.40;;;2.33;;
36411;SDS011;22445;52.100;5.176;2023-05-07T10:43:18;5.65;;;2.50;;
36411;SDS011;22445;52.100;5.176;2023-05-07T10:45:44;3.88;;;3.00;;
36411;SDS011;22445;52.100;5.176;2023-05-07T10:51:32;4.75;;;3.42;;
36411;SDS011;22445;52.100;5.176;2023-05-07T10:57:02;5.00;;;2.88;;
36411;SDS011;22445;52.100;5.176;2023-05-07T11:00:21;4.80;;;3.10;;
36411;SDS011;22445;52.100;5.176;2023-05-07T11:03:10;2.70;;;2.40;;
36411;SDS011;22445;52.100;5.176;2023-05-07T11:05:36;5.60;;;2.72;;
36411;SDS011;22445;52.100;5.176;2023-05-07T11:08:03;4.18;;;3.17;;
36411;SDS011;22445;52.100;5.176;2023-05-07T11:13:17;3.25;;;2.95;;
36411;SDS011;22445;52.100;5.176;2023-05-07T11:15:45;4.10;;;2.70;;
36411;SDS011;22445;52.100;5.176;2023-05-07T11:18:12;2.88;;;2.30;;
36411;SDS011;22445;52.100;5.176;2023-05-07T11:21:12;5.00;;;3.03;;
36411;SDS011;22445;52.100;5.176;2023-05-07T11:26:20;3.80;;;2.95;;
36411;SDS011;22445;52.100;5.176;2023-05-07T11:28:46;3.47;;;2.60;;
36411;SDS011;22445;52.100;5.176;2023-05-07T11:31:12;5.38;;;2.63;;
36411;SDS011;22445;52.100;5.176;2023-05-07T11:33:38;3.80;;;2.42;;
36411;SDS011;22445;52.100;5.176;2023-05-07T11:36:04;3.65;;;3.35;;
36411;SDS011;22445;52.100;5.176;2023-05-07T11:38:30;5.45;;;3.40;;
36411;SDS011;22445;52.100;5.176;2023-05-07T11:41:00;4.85;;;3.33;;
36411;SDS011;22445;52.100;5.176;2023-05-07T11:43:30;5.82;;;3.60;;
36411;SDS011;22445;52.100;5.176;2023-05-07T11:46:04;4.50;;;3.85;;
36411;SDS011;22445;52.100;5.176;2023-05-07T11:48:34;4.85;;;3.47;;
36411;SDS011;22445;52.100;5.176;2023-05-07T11:51:00;7.25;;;3.92;;
36411;SDS011;22445;52.100;5.176;2023-05-07T11:53:28;7.43;;;3.95;;
36411;SDS011;22445;52.100;5.176;2023-05-07T11:56:00;5.75;;;4.88;;
36411;SDS011;22445;52.100;5.176;2023-05-07T11:58:26;5.15;;;3.45;;
36411;SDS011;22445;52.100;5.176;2023-05-07T12:00:52;6.30;;;4.00;;
36411;SDS011;22445;52.100;5.176;2023-05-07T12:03:18;3.75;;;3.17;;
36411;SDS011;22445;52.100;5.176;2023-05-07T12:05:45;6.03;;;4.50;;
36411;SDS011;22445;52.100;5.176;2023-05-07T12:08:18;4.35;;;3.50;;
36411;SDS011;22445;52.100;5.176;2023-05-07T12:10:44;4.97;;;3.92;;
36411;SDS011;22445;52.100;5.176;2023-05-07T12:13:16;4.47;;;3.67;;
36411;SDS011;22445;52.100;5.176;2023-05-07T12:15:45;5.88;;;4.75;;
36411;SDS011;22445;52.100;5.176;2023-05-07T12:18:11;5.20;;;4.70;;
36411;SDS011;22445;52.100;5.176;2023-05-07T12:20:37;4.40;;;3.63;;
36411;SDS011;22445;52.100;5.176;2023-05-07T12:23:03;4.20;;;3.50;;
36411;SDS011;22445;52.100;5.176;2023-05-07T12:25:34;4.55;;;3.80;;
36411;SDS011;22445;52.100;5.176;2023-05-07T12:28:00;5.65;;;3.58;;
36411;SDS011;22445;52.100;5.176;2023-05-07T12:30:26;8.15;;;4.28;;
36411;SDS011;22445;52.100;5.176;2023-05-07T12:32:55;5.00;;;3.03;;
36411;SDS011;22445;52.100;5.176;2023-05-07T12:35:30;5.22;;;3.20;;
36411;SDS011;22445;52.100;5.176;2023-05-07T12:37:57;5.78;;;3.42;;
36411;SDS011;22445;52.100;5.176;2023-05-07T12:40:24;4.93;;;4.35;;
36411;SDS011;22445;52.100;5.176;2023-05-07T12:43:00;4.70;;;4.00;;
36411;SDS011;22445;52.100;5.176;2023-05-07T12:45:26;5.35;;;3.08;;
36411;SDS011;22445;52.100;5.176;2023-05-07T12:47:51;3.55;;;3.25;;
36411;SDS011;22445;52.100;5.176;2023-05-07T12:50:17;4.93;;;3.05;;
36411;SDS011;22445;52.100;5.176;2023-05-07T12:52:45;5.70;;;3.42;;
36411;SDS011;22445;52.100;5.176;2023-05-07T12:55:13;5.00;;;2.92;;
36411;SDS011;22445;52.100;5.176;2023-05-07T12:57:45;4.57;;;2.70;;
36411;SDS011;22445;52.100;5.176;2023-05-07T13:00:13;3.97;;;2.53;;
36411;SDS011;22445;52.100;5.176;2023-05-07T13:02:40;4.55;;;2.90;;
36411;SDS011;22445;52.100;5.176;2023-05-07T13:05:06;5.43;;;2.50;;
36411;SDS011;22445;52.100;5.176;2023-05-07T13:07:33;5.82;;;2.58;;
36411;SDS011;22445;52.100;5.176;2023-05-07T13:09:59;3.03;;;2.15;;
36411;SDS011;22445;52.100;5.176;2023-05-07T13:12:24;6.10;;;2.50;;
36411;SDS011;22445;52.100;5.176;2023-05-07T13:14:50;7.43;;;3.42;;
36411;SDS011;22445;52.100;5.176;2023-05-07T13:17:16;6.30;;;4.00;;
36411;SDS011;22445;52.100;5.176;2023-05-07T13:19:41;5.00;;;4.05;;
36411;SDS011;22445;52.100;5.176;2023-05-07T13:22:07;4.07;;;2.70;;
36411;SDS011;22445;52.100;5.176;2023-05-07T13:24:32;6.30;;;3.38;;
36411;SDS011;22445;52.100;5.176;2023-05-07T13:26:58;5.05;;;3.75;;
36411;SDS011;22445;52.100;5.176;2023-05-07T13:29:24;4.35;;;3.72;;
36411;SDS011;22445;52.100;5.176;2023-05-07T13:31:54;5.10;;;4.00;;
36411;SDS011;22445;52.100;5.176;2023-05-07T13:34:20;5.25;;;3.38;;
36411;SDS011;22445;52.100;5.176;2023-05-07T13:36:46;4.47;;;3.30;;
36411;SDS011;22445;52.100;5.176;2023-05-07T13:39:11;5.53;;;3.75;;
36411;SDS011;22445;52.100;5.176;2023-05-07T13:41:37;8.63;;;4.45;;
36411;SDS011;22445;52.100;5.176;2023-05-07T13:44:02;3.20;;;2.83;;
36411;SDS011;22445;52.100;5.176;2023-05-07T13:46:28;4.68;;;3.20;;
36411;SDS011;22445;52.100;5.176;2023-05-07T13:48:54;4.43;;;2.40;;
36411;SDS011;22445;52.100;5.176;2023-05-07T13:51:20;3.35;;;2.40;;
36411;SDS011;22445;52.100;5.176;2023-05-07T13:53:46;4.85;;;2.60;;
36411;SDS011;22445;52.100;5.176;2023-05-07T13:56:12;3.80;;;2.30;;
36411;SDS011;22445;52.100;5.176;2023-05-07T13:58:39;4.00;;;1.73;;
36411;SDS011;22445;52.100;5.176;2023-05-07T14:01:05;4.07;;;2.10;;
36411;SDS011;22445;52.100;5.176;2023-05-07T14:03:31;6.00;;;2.40;;
36411;SDS011;22445;52.100;5.176;2023-05-07T14:06:00;5.03;;;2.08;;
36411;SDS011;22445;52.100;5.176;2023-05-07T14:08:26;3.75;;;2.00;;
36411;SDS011;22445;52.100;5.176;2023-05-07T14:10:52;3.75;;;1.98;;
36411;SDS011;22445;52.100;5.176;2023-05-07T14:13:18;4.07;;;1.30;;
36411;SDS011;22445;52.100;5.176;2023-05-07T14:15:43;3.17;;;1.38;;
36411;SDS011;22445;52.100;5.176;2023-05-07T14:18:14;5.28;;;1.33;;
36411;SDS011;22445;52.100;5.176;2023-05-07T14:20:40;1.15;;;0.98;;
36411;SDS011;22445;52.100;5.176;2023-05-07T14:23:05;6.53;;;2.25;;
36411;SDS011;22445;52.100;5.176;2023-05-07T14:25:31;4.20;;;2.60;;
36411;SDS011;22445;52.100;5.176;2023-05-07T14:27:57;5.18;;;2.42;;
36411;SDS011;22445;52.100;5.176;2023-05-07T14:30:22;3.78;;;3.30;;
36411;SDS011;22445;52.100;5.176;2023-05-07T14:32:49;5.63;;;3.10;;
36411;SDS011;22445;52.100;5.176;2023-05-07T14:35:15;5.07;;;3.33;;
36411;SDS011;22445;52.100;5.176;2023-05-07T14:37:42;4.22;;;3.30;;
36411;SDS011;22445;52.100;5.176;2023-05-07T14:40:08;5.10;;;2.65;;